Dodgeville, Wisconsin
Current Conditions -  °F | °C
As of 4:35 AM on Friday 24 Oct 2014 (Local Time) from KMRJ Reporting Station
Moderate Fog Moderate Fog  
Wind Chill: 50°   Ceiling: 200
Heat Index: 50°   Visibility: 0.25mi
Dew Point: 48°   Wind: 3mph
Humidity: 94%   Direction: 250°WSW
Pressure: 30.04"   Gusts: NA
Location:  42.96°N, 90.13°W
Report Text: KMRJ 240935Z AUTO 25003KT 1/4SM FG OVC002 10/09 A3004 RMK AO2
Loading
Personal Weather Stations






























Interactive Weather Map
Tropical Storm Tracking
New forecast layout! Learn more

10-Day Weather Forecast

Advertisements
Track Severe Weather on mobile